Accueil
METAR-TAF:

METAR-TAF

Aéroports :

Aéroport de Karlsruhe-Baden-Baden

Baden-Baden, Allemagne

latitude: 48-46-43N, longitude: 008-04-47E, altitude: 124 m

Observation

Le bulletin a été fait il y a 16 minutes, à 09:20 UTC
Vent 3 kt de nord/nord-ouest, variant entre ouest et nord
Température 15°C
Humidité 72%
Pression 1019 hPa
Visibilité 10 km ou plus
pas de nuages en-dessous de 1500 mètres et pas de cumulonimbus.

METAR: EDSB 160920Z 33003KT 280V360 CAVOK 15/10 Q1019

Heure: 11:36 (09:36 UTC)

Prévision

Le bulletin a été fait il y a 4 heures et 36 minutes, à 05:00 UTC
Prévision valable du 16 à 06 UTC au 17 à 06 UTC
Vent 3 kt de nord-est
Visibilité 10 km ou plus
pas de nuages en-dessous de 1500 mètres et pas de cumulonimbus.

TAF: EDSB 160500Z 1606/1706 04003KT CAVOK

Observations et prévisions météorologiques de plus de 4000 aéroports (messages METAR et TAF).

Les stations disponibles sont représentées par des disques jaunes et rouges sur la carte.

Passer la souris dessus pour voir le nom de la station.

Cliquer dessus pour voir les observations et prévisions météorologiques.

Pour changer de carte: cliquez sur les boutons verts avec une croix noire pour zoomer, sur le bouton vert avec un tiret pour effectuer un zoom arrière, ou sur les flèches vertes pour les cartes adjacentes.


METAR-TAF: